sensor_id;sensor_type;location;lat;lon;timestamp;P1;durP1;ratioP1;P2;durP2;ratioP2
3349;SDS011;1688;51.000;13.684;2022-11-06T00:01:03;0.70;;;0.50;;
3349;SDS011;1688;51.000;13.684;2022-11-06T00:03:34;14.70;;;2.40;;
3349;SDS011;1688;51.000;13.684;2022-11-06T00:06:04;2.33;;;2.10;;
3349;SDS011;1688;51.000;13.684;2022-11-06T00:08:53;0.80;;;0.60;;
3349;SDS011;1688;51.000;13.684;2022-11-06T00:11:19;1.33;;;1.17;;
3349;SDS011;1688;51.000;13.684;2022-11-06T00:13:48;0.70;;;0.50;;
3349;SDS011;1688;51.000;13.684;2022-11-06T00:16:16;0.80;;;0.80;;
3349;SDS011;1688;51.000;13.684;2022-11-06T00:18:43;0.70;;;0.50;;
3349;SDS011;1688;51.000;13.684;2022-11-06T00:21:10;0.90;;;0.70;;
3349;SDS011;1688;51.000;13.684;2022-11-06T00:23:38;0.80;;;0.70;;
3349;SDS011;1688;51.000;13.684;2022-11-06T00:26:08;3.67;;;0.87;;
3349;SDS011;1688;51.000;13.684;2022-11-06T00:28:35;2.20;;;1.03;;
3349;SDS011;1688;51.000;13.684;2022-11-06T00:31:02;2.63;;;1.27;;
3349;SDS011;1688;51.000;13.684;2022-11-06T00:33:29;1.10;;;0.80;;
3349;SDS011;1688;51.000;13.684;2022-11-06T00:35:55;5.13;;;1.07;;
3349;SDS011;1688;51.000;13.684;2022-11-06T00:38:21;3.20;;;1.17;;
3349;SDS011;1688;51.000;13.684;2022-11-06T00:40:47;2.37;;;2.17;;
3349;SDS011;1688;51.000;13.684;2022-11-06T00:43:12;1.27;;;1.07;;
3349;SDS011;1688;51.000;13.684;2022-11-06T00:45:38;7.20;;;2.30;;
3349;SDS011;1688;51.000;13.684;2022-11-06T00:48:04;1.70;;;1.60;;
3349;SDS011;1688;51.000;13.684;2022-11-06T00:50:31;1.03;;;0.93;;
3349;SDS011;1688;51.000;13.684;2022-11-06T00:52:57;0.73;;;0.60;;
3349;SDS011;1688;51.000;13.684;2022-11-06T00:55:23;1.70;;;1.40;;
3349;SDS011;1688;51.000;13.684;2022-11-06T00:57:49;0.70;;;0.60;;
3349;SDS011;1688;51.000;13.684;2022-11-06T01:00:15;5.80;;;1.67;;
3349;SDS011;1688;51.000;13.684;2022-11-06T01:02:43;0.70;;;0.50;;
3349;SDS011;1688;51.000;13.684;2022-11-06T01:05:10;0.70;;;0.50;;
3349;SDS011;1688;51.000;13.684;2022-11-06T01:07:36;2.10;;;1.43;;
3349;SDS011;1688;51.000;13.684;2022-11-06T01:10:02;0.87;;;0.73;;
3349;SDS011;1688;51.000;13.684;2022-11-06T01:12:32;0.93;;;0.90;;
3349;SDS011;1688;51.000;13.684;2022-11-06T01:14:58;1.90;;;1.13;;
3349;SDS011;1688;51.000;13.684;2022-11-06T01:17:25;0.80;;;0.80;;
3349;SDS011;1688;51.000;13.684;2022-11-06T01:19:51;0.97;;;0.87;;
3349;SDS011;1688;51.000;13.684;2022-11-06T01:22:17;0.90;;;0.70;;
3349;SDS011;1688;51.000;13.684;2022-11-06T01:24:42;2.03;;;1.90;;
3349;SDS011;1688;51.000;13.684;2022-11-06T01:27:13;1.43;;;1.30;;
3349;SDS011;1688;51.000;13.684;2022-11-06T01:29:39;1.00;;;0.80;;
3349;SDS011;1688;51.000;13.684;2022-11-06T01:32:05;2.83;;;1.60;;
3349;SDS011;1688;51.000;13.684;2022-11-06T01:34:30;1.43;;;1.33;;
3349;SDS011;1688;51.000;13.684;2022-11-06T01:36:56;0.90;;;0.67;;
3349;SDS011;1688;51.000;13.684;2022-11-06T01:39:22;0.70;;;0.43;;
3349;SDS011;1688;51.000;13.684;2022-11-06T01:41:49;3.90;;;0.83;;
3349;SDS011;1688;51.000;13.684;2022-11-06T01:47:18;1.77;;;1.67;;
3349;SDS011;1688;51.000;13.684;2022-11-06T01:49:44;0.80;;;0.80;;
3349;SDS011;1688;51.000;13.684;2022-11-06T01:52:10;1.27;;;0.97;;
3349;SDS011;1688;51.000;13.684;2022-11-06T01:54:39;1.20;;;0.97;;
3349;SDS011;1688;51.000;13.684;2022-11-06T01:57:07;0.90;;;0.60;;
3349;SDS011;1688;51.000;13.684;2022-11-06T01:59:35;1.17;;;1.07;;
3349;SDS011;1688;51.000;13.684;2022-11-06T02:02:05;0.97;;;0.77;;
3349;SDS011;1688;51.000;13.684;2022-11-06T02:04:32;0.80;;;0.60;;
3349;SDS011;1688;51.000;13.684;2022-11-06T02:07:01;0.70;;;0.60;;
3349;SDS011;1688;51.000;13.684;2022-11-06T02:09:28;1.00;;;0.70;;
3349;SDS011;1688;51.000;13.684;2022-11-06T02:12:04;0.80;;;0.70;;
3349;SDS011;1688;51.000;13.684;2022-11-06T02:20:29;1.73;;;0.90;;
3349;SDS011;1688;51.000;13.684;2022-11-06T02:29:03;2.87;;;1.27;;
3349;SDS011;1688;51.000;13.684;2022-11-06T02:31:33;0.70;;;0.50;;
3349;SDS011;1688;51.000;13.684;2022-11-06T02:34:04;0.90;;;0.70;;
3349;SDS011;1688;51.000;13.684;2022-11-06T02:36:46;0.80;;;0.70;;
3349;SDS011;1688;51.000;13.684;2022-11-06T02:39:35;0.73;;;0.60;;
3349;SDS011;1688;51.000;13.684;2022-11-06T02:42:04;2.10;;;2.00;;
3349;SDS011;1688;51.000;13.684;2022-11-06T02:44:33;1.43;;;1.33;;
3349;SDS011;1688;51.000;13.684;2022-11-06T02:47:06;0.93;;;0.60;;
3349;SDS011;1688;51.000;13.684;2022-11-06T02:49:45;1.97;;;1.80;;
3349;SDS011;1688;51.000;13.684;2022-11-06T02:52:31;2.50;;;2.30;;
3349;SDS011;1688;51.000;13.684;2022-11-06T02:57:33;0.90;;;0.70;;
3349;SDS011;1688;51.000;13.684;2022-11-06T03:00:05;1.27;;;0.97;;
3349;SDS011;1688;51.000;13.684;2022-11-06T03:03:20;0.70;;;0.53;;
3349;SDS011;1688;51.000;13.684;2022-11-06T03:05:30;1.03;;;0.70;;
3349;SDS011;1688;51.000;13.684;2022-11-06T03:08:14;0.70;;;0.60;;
3349;SDS011;1688;51.000;13.684;2022-11-06T03:18:55;1.57;;;1.47;;
3349;SDS011;1688;51.000;13.684;2022-11-06T03:24:27;2.07;;;0.70;;
3349;SDS011;1688;51.000;13.684;2022-11-06T03:26:58;1.27;;;1.17;;
3349;SDS011;1688;51.000;13.684;2022-11-06T03:32:07;1.80;;;1.70;;
3349;SDS011;1688;51.000;13.684;2022-11-06T03:34:50;1.30;;;1.07;;
3349;SDS011;1688;51.000;13.684;2022-11-06T03:37:25;6.67;;;1.90;;
3349;SDS011;1688;51.000;13.684;2022-11-06T03:39:57;2.60;;;1.53;;
3349;SDS011;1688;51.000;13.684;2022-11-06T03:42:29;2.40;;;2.20;;
3349;SDS011;1688;51.000;13.684;2022-11-06T03:44:57;3.27;;;1.80;;
3349;SDS011;1688;51.000;13.684;2022-11-06T03:47:28;0.80;;;0.80;;
3349;SDS011;1688;51.000;13.684;2022-11-06T03:50:04;1.77;;;1.47;;
3349;SDS011;1688;51.000;13.684;2022-11-06T03:52:49;2.43;;;2.20;;
3349;SDS011;1688;51.000;13.684;2022-11-06T03:55:31;2.50;;;0.80;;
3349;SDS011;1688;51.000;13.684;2022-11-06T03:58:16;3.13;;;2.57;;
3349;SDS011;1688;51.000;13.684;2022-11-06T04:00:46;1.90;;;1.47;;
3349;SDS011;1688;51.000;13.684;2022-11-06T04:03:27;2.17;;;1.97;;
3349;SDS011;1688;51.000;13.684;2022-11-06T04:05:59;8.90;;;1.60;;
3349;SDS011;1688;51.000;13.684;2022-11-06T04:08:32;4.07;;;1.43;;
3349;SDS011;1688;51.000;13.684;2022-11-06T04:11:17;2.23;;;2.10;;
3349;SDS011;1688;51.000;13.684;2022-11-06T04:14:05;3.27;;;1.20;;
3349;SDS011;1688;51.000;13.684;2022-11-06T04:16:43;0.70;;;0.40;;
3349;SDS011;1688;51.000;13.684;2022-11-06T04:19:14;0.97;;;0.67;;
3349;SDS011;1688;51.000;13.684;2022-11-06T04:30:15;1.93;;;1.67;;
3349;SDS011;1688;51.000;13.684;2022-11-06T04:37:57;0.70;;;0.50;;
3349;SDS011;1688;51.000;13.684;2022-11-06T04:43:00;1.03;;;0.90;;
3349;SDS011;1688;51.000;13.684;2022-11-06T04:48:02;2.73;;;2.53;;
3349;SDS011;1688;51.000;13.684;2022-11-06T04:50:31;1.00;;;0.83;;
3349;SDS011;1688;51.000;13.684;2022-11-06T04:53:01;1.10;;;0.73;;
3349;SDS011;1688;51.000;13.684;2022-11-06T04:55:28;1.60;;;1.33;;
3349;SDS011;1688;51.000;13.684;2022-11-06T04:57:58;1.03;;;0.80;;
3349;SDS011;1688;51.000;13.684;2022-11-06T05:00:23;1.23;;;1.13;;
3349;SDS011;1688;51.000;13.684;2022-11-06T05:02:49;3.67;;;2.10;;
3349;SDS011;1688;51.000;13.684;2022-11-06T05:05:15;3.00;;;2.20;;
3349;SDS011;1688;51.000;13.684;2022-11-06T05:07:45;5.30;;;2.80;;
3349;SDS011;1688;51.000;13.684;2022-11-06T05:10:11;0.80;;;0.80;;
3349;SDS011;1688;51.000;13.684;2022-11-06T05:12:37;1.10;;;0.97;;
3349;SDS011;1688;51.000;13.684;2022-11-06T05:15:03;1.13;;;1.03;;
3349;SDS011;1688;51.000;13.684;2022-11-06T05:17:29;0.80;;;0.63;;
3349;SDS011;1688;51.000;13.684;2022-11-06T05:19:55;1.67;;;1.13;;
3349;SDS011;1688;51.000;13.684;2022-11-06T05:22:21;1.30;;;0.80;;
3349;SDS011;1688;51.000;13.684;2022-11-06T05:25:05;0.90;;;0.70;;
3349;SDS011;1688;51.000;13.684;2022-11-06T05:27:31;2.07;;;1.40;;
3349;SDS011;1688;51.000;13.684;2022-11-06T05:29:57;1.33;;;0.70;;
3349;SDS011;1688;51.000;13.684;2022-11-06T05:32:22;2.40;;;0.93;;
3349;SDS011;1688;51.000;13.684;2022-11-06T05:34:48;0.70;;;0.50;;
3349;SDS011;1688;51.000;13.684;2022-11-06T05:37:14;1.07;;;0.87;;
3349;SDS011;1688;51.000;13.684;2022-11-06T05:39:39;1.37;;;1.27;;
3349;SDS011;1688;51.000;13.684;2022-11-06T05:42:05;1.57;;;1.33;;
3349;SDS011;1688;51.000;13.684;2022-11-06T05:44:31;0.83;;;0.70;;
3349;SDS011;1688;51.000;13.684;2022-11-06T05:46:57;3.93;;;1.37;;
3349;SDS011;1688;51.000;13.684;2022-11-06T05:49:22;1.00;;;0.77;;
3349;SDS011;1688;51.000;13.684;2022-11-06T05:51:48;0.70;;;0.50;;
3349;SDS011;1688;51.000;13.684;2022-11-06T05:54:14;0.77;;;0.67;;
3349;SDS011;1688;51.000;13.684;2022-11-06T05:56:40;3.90;;;1.80;;
3349;SDS011;1688;51.000;13.684;2022-11-06T05:59:06;0.70;;;0.60;;
3349;SDS011;1688;51.000;13.684;2022-11-06T06:01:31;0.93;;;0.83;;
3349;SDS011;1688;51.000;13.684;2022-11-06T06:03:57;0.70;;;0.47;;
3349;SDS011;1688;51.000;13.684;2022-11-06T06:06:24;0.70;;;0.50;;
3349;SDS011;1688;51.000;13.684;2022-11-06T06:08:50;0.93;;;0.83;;
3349;SDS011;1688;51.000;13.684;2022-11-06T06:11:15;1.47;;;1.07;;
3349;SDS011;1688;51.000;13.684;2022-11-06T06:13:41;1.17;;;1.07;;
3349;SDS011;1688;51.000;13.684;2022-11-06T06:16:07;2.87;;;0.63;;
3349;SDS011;1688;51.000;13.684;2022-11-06T06:18:32;1.33;;;1.13;;
3349;SDS011;1688;51.000;13.684;2022-11-06T06:20:58;1.30;;;1.20;;
3349;SDS011;1688;51.000;13.684;2022-11-06T06:23:24;0.90;;;0.70;;
3349;SDS011;1688;51.000;13.684;2022-11-06T06:25:50;1.63;;;1.50;;
3349;SDS011;1688;51.000;13.684;2022-11-06T06:28:15;0.70;;;0.50;;
3349;SDS011;1688;51.000;13.684;2022-11-06T06:30:41;1.37;;;1.27;;
3349;SDS011;1688;51.000;13.684;2022-11-06T06:33:07;0.90;;;0.73;;
3349;SDS011;1688;51.000;13.684;2022-11-06T06:35:33;0.70;;;0.50;;
3349;SDS011;1688;51.000;13.684;2022-11-06T06:37:59;0.70;;;0.50;;
3349;SDS011;1688;51.000;13.684;2022-11-06T06:40:25;7.63;;;1.87;;
3349;SDS011;1688;51.000;13.684;2022-11-06T06:42:54;1.13;;;1.03;;
3349;SDS011;1688;51.000;13.684;2022-11-06T06:45:21;1.10;;;1.00;;
3349;SDS011;1688;51.000;13.684;2022-11-06T06:47:48;2.33;;;0.90;;
3349;SDS011;1688;51.000;13.684;2022-11-06T06:50:13;22.20;;;1.07;;
3349;SDS011;1688;51.000;13.684;2022-11-06T06:52:39;3.03;;;2.00;;
3349;SDS011;1688;51.000;13.684;2022-11-06T06:55:05;0.70;;;0.50;;
3349;SDS011;1688;51.000;13.684;2022-11-06T06:57:31;3.90;;;2.03;;
3349;SDS011;1688;51.000;13.684;2022-11-06T06:59:57;1.20;;;1.10;;
3349;SDS011;1688;51.000;13.684;2022-11-06T07:02:22;1.20;;;0.93;;
3349;SDS011;1688;51.000;13.684;2022-11-06T07:04:52;3.43;;;0.77;;
3349;SDS011;1688;51.000;13.684;2022-11-06T07:07:18;0.80;;;0.80;;
3349;SDS011;1688;51.000;13.684;2022-11-06T07:09:44;1.17;;;1.07;;
3349;SDS011;1688;51.000;13.684;2022-11-06T07:12:09;2.13;;;1.93;;
3349;SDS011;1688;51.000;13.684;2022-11-06T07:14:35;1.33;;;0.70;;
3349;SDS011;1688;51.000;13.684;2022-11-06T07:17:01;0.70;;;0.60;;
3349;SDS011;1688;51.000;13.684;2022-11-06T07:19:26;0.70;;;0.50;;
3349;SDS011;1688;51.000;13.684;2022-11-06T07:21:52;2.80;;;1.90;;
3349;SDS011;1688;51.000;13.684;2022-11-06T07:24:18;2.23;;;2.13;;
3349;SDS011;1688;51.000;13.684;2022-11-06T07:26:46;1.87;;;1.57;;
3349;SDS011;1688;51.000;13.684;2022-11-06T07:29:12;1.63;;;1.53;;
3349;SDS011;1688;51.000;13.684;2022-11-06T07:31:37;1.27;;;1.00;;
3349;SDS011;1688;51.000;13.684;2022-11-06T07:34:03;7.50;;;1.53;;
3349;SDS011;1688;51.000;13.684;2022-11-06T07:36:30;3.57;;;1.50;;
3349;SDS011;1688;51.000;13.684;2022-11-06T07:38:56;1.53;;;1.37;;
3349;SDS011;1688;51.000;13.684;2022-11-06T07:41:22;0.83;;;0.83;;
3349;SDS011;1688;51.000;13.684;2022-11-06T07:43:48;2.00;;;1.00;;
3349;SDS011;1688;51.000;13.684;2022-11-06T07:46:15;1.00;;;0.90;;
3349;SDS011;1688;51.000;13.684;2022-11-06T07:48:41;2.90;;;1.47;;
3349;SDS011;1688;51.000;13.684;2022-11-06T07:51:08;1.70;;;1.30;;
3349;SDS011;1688;51.000;13.684;2022-11-06T07:53:35;2.10;;;1.30;;
3349;SDS011;1688;51.000;13.684;2022-11-06T07:56:09;1.77;;;0.90;;
3349;SDS011;1688;51.000;13.684;2022-11-06T07:58:35;3.53;;;1.17;;
3349;SDS011;1688;51.000;13.684;2022-11-06T08:01:01;1.00;;;0.80;;
3349;SDS011;1688;51.000;13.684;2022-11-06T08:03:27;6.07;;;1.37;;
3349;SDS011;1688;51.000;13.684;2022-11-06T08:05:56;2.27;;;1.80;;
3349;SDS011;1688;51.000;13.684;2022-11-06T08:08:23;1.80;;;1.07;;
3349;SDS011;1688;51.000;13.684;2022-11-06T08:10:49;0.87;;;0.80;;
3349;SDS011;1688;51.000;13.684;2022-11-06T08:13:16;2.10;;;1.10;;
3349;SDS011;1688;51.000;13.684;2022-11-06T08:15:42;1.97;;;1.70;;
3349;SDS011;1688;51.000;13.684;2022-11-06T08:18:09;2.90;;;2.70;;
3349;SDS011;1688;51.000;13.684;2022-11-06T08:20:35;1.70;;;1.30;;
3349;SDS011;1688;51.000;13.684;2022-11-06T08:23:03;1.57;;;1.40;;
3349;SDS011;1688;51.000;13.684;2022-11-06T08:25:31;1.67;;;1.57;;
3349;SDS011;1688;51.000;13.684;2022-11-06T08:27:57;2.10;;;1.27;;
3349;SDS011;1688;51.000;13.684;2022-11-06T08:30:25;2.00;;;1.57;;
3349;SDS011;1688;51.000;13.684;2022-11-06T08:32:59;5.43;;;1.30;;
3349;SDS011;1688;51.000;13.684;2022-11-06T08:35:27;2.13;;;1.80;;
3349;SDS011;1688;51.000;13.684;2022-11-06T08:37:53;2.00;;;1.90;;
3349;SDS011;1688;51.000;13.684;2022-11-06T08:40:19;1.70;;;1.60;;
3349;SDS011;1688;51.000;13.684;2022-11-06T08:42:45;1.70;;;1.60;;
3349;SDS011;1688;51.000;13.684;2022-11-06T08:45:11;4.63;;;2.90;;
3349;SDS011;1688;51.000;13.684;2022-11-06T08:47:37;1.13;;;1.03;;
3349;SDS011;1688;51.000;13.684;2022-11-06T08:50:02;2.17;;;1.50;;
3349;SDS011;1688;51.000;13.684;2022-11-06T08:52:28;3.00;;;1.93;;
3349;SDS011;1688;51.000;13.684;2022-11-06T08:54:54;0.93;;;0.87;;
3349;SDS011;1688;51.000;13.684;2022-11-06T08:57:20;2.50;;;1.83;;
3349;SDS011;1688;51.000;13.684;2022-11-06T08:59:46;1.60;;;1.00;;
3349;SDS011;1688;51.000;13.684;2022-11-06T09:02:12;2.30;;;2.20;;
3349;SDS011;1688;51.000;13.684;2022-11-06T09:04:38;2.20;;;1.20;;
3349;SDS011;1688;51.000;13.684;2022-11-06T09:07:05;1.70;;;1.60;;
3349;SDS011;1688;51.000;13.684;2022-11-06T09:09:31;2.60;;;1.77;;
3349;SDS011;1688;51.000;13.684;2022-11-06T09:11:57;3.80;;;2.20;;
3349;SDS011;1688;51.000;13.684;2022-11-06T09:14:23;2.50;;;1.97;;
3349;SDS011;1688;51.000;13.684;2022-11-06T09:16:49;5.30;;;1.20;;
3349;SDS011;1688;51.000;13.684;2022-11-06T09:19:15;2.60;;;1.90;;
3349;SDS011;1688;51.000;13.684;2022-11-06T09:21:41;2.87;;;2.60;;
3349;SDS011;1688;51.000;13.684;2022-11-06T09:24:07;1.97;;;1.67;;
3349;SDS011;1688;51.000;13.684;2022-11-06T09:26:33;2.77;;;2.53;;
3349;SDS011;1688;51.000;13.684;2022-11-06T09:28:59;2.03;;;1.40;;
3349;SDS011;1688;51.000;13.684;2022-11-06T09:31:24;5.80;;;1.80;;
3349;SDS011;1688;51.000;13.684;2022-11-06T09:33:50;0.90;;;0.80;;
3349;SDS011;1688;51.000;13.684;2022-11-06T09:36:30;3.30;;;2.13;;
3349;SDS011;1688;51.000;13.684;2022-11-06T09:38:55;2.00;;;1.63;;
3349;SDS011;1688;51.000;13.684;2022-11-06T09:42:10;1.60;;;1.50;;
3349;SDS011;1688;51.000;13.684;2022-11-06T09:46:54;1.10;;;0.90;;
3349;SDS011;1688;51.000;13.684;2022-11-06T09:54:37;1.50;;;1.40;;
3349;SDS011;1688;51.000;13.684;2022-11-06T09:57:20;1.03;;;0.93;;
3349;SDS011;1688;51.000;13.684;2022-11-06T09:59:59;1.50;;;1.40;;
3349;SDS011;1688;51.000;13.684;2022-11-06T10:02:32;1.40;;;1.30;;
3349;SDS011;1688;51.000;13.684;2022-11-06T10:05:05;1.50;;;1.40;;
3349;SDS011;1688;51.000;13.684;2022-11-06T10:07:33;4.70;;;2.30;;
3349;SDS011;1688;51.000;13.684;2022-11-06T10:10:16;1.83;;;1.73;;
3349;SDS011;1688;51.000;13.684;2022-11-06T10:15:32;3.63;;;2.50;;
3349;SDS011;1688;51.000;13.684;2022-11-06T10:20:51;1.13;;;1.03;;
3349;SDS011;1688;51.000;13.684;2022-11-06T10:23:24;3.00;;;1.37;;
3349;SDS011;1688;51.000;13.684;2022-11-06T10:26:14;1.23;;;1.10;;
3349;SDS011;1688;51.000;13.684;2022-11-06T10:34:26;2.07;;;1.53;;
3349;SDS011;1688;51.000;13.684;2022-11-06T10:37:07;1.00;;;0.87;;
3349;SDS011;1688;51.000;13.684;2022-11-06T10:39:37;3.90;;;1.33;;
3349;SDS011;1688;51.000;13.684;2022-11-06T10:42:17;1.30;;;1.20;;
3349;SDS011;1688;51.000;13.684;2022-11-06T10:47:20;1.70;;;1.43;;
3349;SDS011;1688;51.000;13.684;2022-11-06T11:00:12;2.23;;;1.07;;
3349;SDS011;1688;51.000;13.684;2022-11-06T11:02:43;1.47;;;1.23;;
3349;SDS011;1688;51.000;13.684;2022-11-06T11:05:12;0.80;;;0.77;;
3349;SDS011;1688;51.000;13.684;2022-11-06T11:07:52;2.97;;;1.50;;
3349;SDS011;1688;51.000;13.684;2022-11-06T11:12:48;1.37;;;1.00;;
3349;SDS011;1688;51.000;13.684;2022-11-06T11:15:16;4.50;;;1.70;;
3349;SDS011;1688;51.000;13.684;2022-11-06T11:18:05;3.90;;;1.77;;
3349;SDS011;1688;51.000;13.684;2022-11-06T11:20:33;1.07;;;0.97;;
3349;SDS011;1688;51.000;13.684;2022-11-06T11:25:46;7.20;;;2.80;;
3349;SDS011;1688;51.000;13.684;2022-11-06T11:31:10;3.47;;;2.20;;
3349;SDS011;1688;51.000;13.684;2022-11-06T11:33:38;2.20;;;1.67;;
3349;SDS011;1688;51.000;13.684;2022-11-06T11:36:06;2.40;;;2.00;;
3349;SDS011;1688;51.000;13.684;2022-11-06T11:38:35;1.77;;;1.57;;
3349;SDS011;1688;51.000;13.684;2022-11-06T11:43:54;2.83;;;2.33;;
3349;SDS011;1688;51.000;13.684;2022-11-06T11:46:36;1.03;;;0.93;;
3349;SDS011;1688;51.000;13.684;2022-11-06T11:49:24;1.70;;;0.93;;
3349;SDS011;1688;51.000;13.684;2022-11-06T11:51:55;1.43;;;1.33;;
3349;SDS011;1688;51.000;13.684;2022-11-06T11:54:25;5.43;;;1.33;;
3349;SDS011;1688;51.000;13.684;2022-11-06T11:56:56;1.57;;;1.27;;
3349;SDS011;1688;51.000;13.684;2022-11-06T11:59:46;1.60;;;1.50;;
3349;SDS011;1688;51.000;13.684;2022-11-06T12:02:24;0.83;;;0.60;;
3349;SDS011;1688;51.000;13.684;2022-11-06T12:05:08;1.80;;;1.53;;
3349;SDS011;1688;51.000;13.684;2022-11-06T12:07:41;2.60;;;1.20;;
3349;SDS011;1688;51.000;13.684;2022-11-06T12:10:21;1.43;;;1.27;;
3349;SDS011;1688;51.000;13.684;2022-11-06T12:12:56;1.60;;;1.20;;
3349;SDS011;1688;51.000;13.684;2022-11-06T12:15:43;1.43;;;0.90;;
3349;SDS011;1688;51.000;13.684;2022-11-06T12:18:10;1.73;;;1.20;;
3349;SDS011;1688;51.000;13.684;2022-11-06T12:23:42;1.20;;;1.00;;
3349;SDS011;1688;51.000;13.684;2022-11-06T12:26:05;0.90;;;0.70;;
3349;SDS011;1688;51.000;13.684;2022-11-06T12:28:36;2.23;;;1.03;;
3349;SDS011;1688;51.000;13.684;2022-11-06T12:31:11;2.93;;;1.13;;
3349;SDS011;1688;51.000;13.684;2022-11-06T12:33:43;3.23;;;1.93;;
3349;SDS011;1688;51.000;13.684;2022-11-06T12:36:17;2.00;;;1.23;;
3349;SDS011;1688;51.000;13.684;2022-11-06T12:38:47;1.43;;;1.33;;
3349;SDS011;1688;51.000;13.684;2022-11-06T12:41:42;1.43;;;1.10;;
3349;SDS011;1688;51.000;13.684;2022-11-06T12:44:13;6.57;;;1.10;;
3349;SDS011;1688;51.000;13.684;2022-11-06T13:00:47;0.90;;;0.70;;
3349;SDS011;1688;51.000;13.684;2022-11-06T13:09:02;1.47;;;1.20;;
3349;SDS011;1688;51.000;13.684;2022-11-06T13:16:56;1.00;;;0.90;;
3349;SDS011;1688;51.000;13.684;2022-11-06T13:19:32;2.10;;;1.90;;
3349;SDS011;1688;51.000;13.684;2022-11-06T13:24:48;1.17;;;0.97;;
3349;SDS011;1688;51.000;13.684;2022-11-06T13:29:51;1.73;;;1.40;;
3349;SDS011;1688;51.000;13.684;2022-11-06T13:32:23;2.03;;;1.80;;
3349;SDS011;1688;51.000;13.684;2022-11-06T13:34:51;2.53;;;0.93;;
3349;SDS011;1688;51.000;13.684;2022-11-06T13:37:30;1.53;;;1.10;;
3349;SDS011;1688;51.000;13.684;2022-11-06T13:40:05;1.50;;;1.00;;
3349;SDS011;1688;51.000;13.684;2022-11-06T13:42:41;3.40;;;3.10;;
3349;SDS011;1688;51.000;13.684;2022-11-06T13:45:13;2.13;;;0.93;;
3349;SDS011;1688;51.000;13.684;2022-11-06T13:50:29;4.07;;;3.63;;
3349;SDS011;1688;51.000;13.684;2022-11-06T13:53:05;2.60;;;1.93;;
3349;SDS011;1688;51.000;13.684;2022-11-06T14:06:14;6.53;;;2.40;;
3349;SDS011;1688;51.000;13.684;2022-11-06T14:08:46;2.93;;;1.83;;
3349;SDS011;1688;51.000;13.684;2022-11-06T14:11:26;3.20;;;3.00;;
3349;SDS011;1688;51.000;13.684;2022-11-06T14:17:07;19.87;;;2.20;;
3349;SDS011;1688;51.000;13.684;2022-11-06T14:32:54;8.33;;;4.00;;
3349;SDS011;1688;51.000;13.684;2022-11-06T14:38:12;3.53;;;1.83;;
3349;SDS011;1688;51.000;13.684;2022-11-06T14:40:42;4.83;;;2.07;;
3349;SDS011;1688;51.000;13.684;2022-11-06T14:43:29;3.10;;;1.73;;
3349;SDS011;1688;51.000;13.684;2022-11-06T14:46:02;2.53;;;2.20;;
3349;SDS011;1688;51.000;13.684;2022-11-06T14:48:36;3.83;;;3.47;;
3349;SDS011;1688;51.000;13.684;2022-11-06T14:51:04;4.53;;;2.10;;
3349;SDS011;1688;51.000;13.684;2022-11-06T14:53:44;4.50;;;2.50;;
3349;SDS011;1688;51.000;13.684;2022-11-06T14:56:26;1.50;;;1.40;;
3349;SDS011;1688;51.000;13.684;2022-11-06T14:58:55;7.57;;;3.30;;
3349;SDS011;1688;51.000;13.684;2022-11-06T15:01:25;2.90;;;1.80;;
3349;SDS011;1688;51.000;13.684;2022-11-06T15:03:58;3.33;;;3.03;;
3349;SDS011;1688;51.000;13.684;2022-11-06T15:09:14;4.00;;;1.37;;
3349;SDS011;1688;51.000;13.684;2022-11-06T15:12:03;1.20;;;1.10;;
3349;SDS011;1688;51.000;13.684;2022-11-06T15:17:09;6.53;;;3.53;;
3349;SDS011;1688;51.000;13.684;2022-11-06T15:19:38;6.87;;;2.97;;
3349;SDS011;1688;51.000;13.684;2022-11-06T15:27:27;3.43;;;2.23;;
3349;SDS011;1688;51.000;13.684;2022-11-06T15:29:57;2.67;;;1.93;;
3349;SDS011;1688;51.000;13.684;2022-11-06T15:32:28;2.27;;;1.20;;
3349;SDS011;1688;51.000;13.684;2022-11-06T15:35:26;4.83;;;4.30;;
3349;SDS011;1688;51.000;13.684;2022-11-06T15:38:06;4.63;;;2.93;;
3349;SDS011;1688;51.000;13.684;2022-11-06T15:40:37;2.77;;;2.20;;
3349;SDS011;1688;51.000;13.684;2022-11-06T15:43:17;1.90;;;1.63;;
3349;SDS011;1688;51.000;13.684;2022-11-06T15:46:04;8.57;;;3.57;;
3349;SDS011;1688;51.000;13.684;2022-11-06T15:48:30;5.60;;;3.37;;
3349;SDS011;1688;51.000;13.684;2022-11-06T15:50:56;6.77;;;5.03;;
3349;SDS011;1688;51.000;13.684;2022-11-06T15:53:25;4.17;;;3.67;;
3349;SDS011;1688;51.000;13.684;2022-11-06T15:58:25;6.00;;;2.90;;
3349;SDS011;1688;51.000;13.684;2022-11-06T16:00:53;2.50;;;2.23;;
3349;SDS011;1688;51.000;13.684;2022-11-06T16:03:20;5.40;;;3.17;;
3349;SDS011;1688;51.000;13.684;2022-11-06T16:05:48;3.10;;;2.47;;
3349;SDS011;1688;51.000;13.684;2022-11-06T16:08:19;6.90;;;5.13;;
3349;SDS011;1688;51.000;13.684;2022-11-06T16:10:48;8.27;;;3.37;;
3349;SDS011;1688;51.000;13.684;2022-11-06T16:13:15;8.37;;;7.43;;
3349;SDS011;1688;51.000;13.684;2022-11-06T16:15:44;5.27;;;4.27;;
3349;SDS011;1688;51.000;13.684;2022-11-06T16:21:15;5.53;;;2.33;;
3349;SDS011;1688;51.000;13.684;2022-11-06T16:23:47;5.57;;;5.03;;
3349;SDS011;1688;51.000;13.684;2022-11-06T16:26:22;6.23;;;4.80;;
3349;SDS011;1688;51.000;13.684;2022-11-06T16:28:52;3.33;;;2.40;;
3349;SDS011;1688;51.000;13.684;2022-11-06T16:31:21;5.73;;;4.00;;
3349;SDS011;1688;51.000;13.684;2022-11-06T16:33:55;2.77;;;2.57;;
3349;SDS011;1688;51.000;13.684;2022-11-06T16:36:24;3.30;;;2.90;;
3349;SDS011;1688;51.000;13.684;2022-11-06T16:38:51;8.50;;;3.33;;
3349;SDS011;1688;51.000;13.684;2022-11-06T16:41:19;1.20;;;1.00;;
3349;SDS011;1688;51.000;13.684;2022-11-06T16:44:17;7.73;;;6.57;;
3349;SDS011;1688;51.000;13.684;2022-11-06T16:47:15;4.43;;;3.33;;
3349;SDS011;1688;51.000;13.684;2022-11-06T16:49:46;4.80;;;4.00;;
3349;SDS011;1688;51.000;13.684;2022-11-06T16:55:00;5.47;;;4.80;;
3349;SDS011;1688;51.000;13.684;2022-11-06T16:57:41;5.53;;;5.10;;
3349;SDS011;1688;51.000;13.684;2022-11-06T17:02:52;6.23;;;2.97;;
3349;SDS011;1688;51.000;13.684;2022-11-06T17:05:26;3.93;;;3.40;;
3349;SDS011;1688;51.000;13.684;2022-11-06T17:13:13;5.47;;;2.33;;
3349;SDS011;1688;51.000;13.684;2022-11-06T17:15:43;5.63;;;3.17;;
3349;SDS011;1688;51.000;13.684;2022-11-06T17:18:21;116.17;;;41.00;;
3349;SDS011;1688;51.000;13.684;2022-11-06T17:21:03;44.17;;;22.40;;
3349;SDS011;1688;51.000;13.684;2022-11-06T17:23:31;55.83;;;30.03;;
3349;SDS011;1688;51.000;13.684;2022-11-06T17:26:01;22.73;;;11.30;;
3349;SDS011;1688;51.000;13.684;2022-11-06T17:28:30;19.67;;;13.33;;
3349;SDS011;1688;51.000;13.684;2022-11-06T17:30:58;47.60;;;19.37;;
3349;SDS011;1688;51.000;13.684;2022-11-06T17:33:26;13.03;;;7.67;;
3349;SDS011;1688;51.000;13.684;2022-11-06T17:35:53;12.20;;;8.97;;
3349;SDS011;1688;51.000;13.684;2022-11-06T17:38:19;17.13;;;11.73;;
3349;SDS011;1688;51.000;13.684;2022-11-06T17:40:45;22.67;;;15.00;;
3349;SDS011;1688;51.000;13.684;2022-11-06T17:43:12;31.77;;;20.60;;
3349;SDS011;1688;51.000;13.684;2022-11-06T17:45:38;17.97;;;8.37;;
3349;SDS011;1688;51.000;13.684;2022-11-06T17:48:06;34.57;;;11.00;;
3349;SDS011;1688;51.000;13.684;2022-11-06T17:50:32;21.67;;;15.37;;
3349;SDS011;1688;51.000;13.684;2022-11-06T17:53:18;10.40;;;9.63;;
3349;SDS011;1688;51.000;13.684;2022-11-06T17:55:43;6.90;;;6.10;;
3349;SDS011;1688;51.000;13.684;2022-11-06T17:58:09;18.67;;;7.47;;
3349;SDS011;1688;51.000;13.684;2022-11-06T18:00:35;7.10;;;5.10;;
3349;SDS011;1688;51.000;13.684;2022-11-06T18:03:01;5.60;;;4.80;;
3349;SDS011;1688;51.000;13.684;2022-11-06T18:05:26;2.87;;;2.67;;
3349;SDS011;1688;51.000;13.684;2022-11-06T18:07:52;9.10;;;5.43;;
3349;SDS011;1688;51.000;13.684;2022-11-06T18:10:18;7.00;;;4.80;;
3349;SDS011;1688;51.000;13.684;2022-11-06T18:12:47;2.27;;;1.73;;
3349;SDS011;1688;51.000;13.684;2022-11-06T18:15:15;7.37;;;4.90;;
3349;SDS011;1688;51.000;13.684;2022-11-06T18:17:42;7.10;;;2.87;;
3349;SDS011;1688;51.000;13.684;2022-11-06T18:20:08;6.33;;;3.03;;
3349;SDS011;1688;51.000;13.684;2022-11-06T18:22:34;2.50;;;2.30;;
3349;SDS011;1688;51.000;13.684;2022-11-06T18:25:00;1.47;;;1.37;;